Time;durP1;ratioP1;P1;durP2;ratioP2;P2;SDS_P1;SDS_P2;PMS_P1;PMS_P2;Temp;Humidity;BMP_temperature;BMP_pressure;BME280_temperature;BME280_humidity;BME280_pressure;Samples;Min_cycle;Max_cycle;Signal;HPM_P1;HPM_P2
2023/08/25 00:00:38;;;;;;;3.60;2.53;;;19.60;99.90;;;;;;4967458;28;20136;-84
2023/08/25 00:03:04;;;;;;;7.50;2.85;;;19.70;99.90;;;;;;4967449;28;20152;-82
2023/08/25 00:05:35;;;;;;;5.70;2.72;;;19.70;99.90;;;;;;4951757;29;20527;-82
2023/08/25 00:08:00;;;;;;;8.18;2.55;;;19.80;99.90;;;;;;4952783;28;20036;-80
2023/08/25 00:10:26;;;;;;;6.00;3.05;;;19.80;99.90;;;;;;4967419;28;20108;-77
2023/08/25 00:12:51;;;;;;;9.23;3.75;;;19.80;99.90;;;;;;4952227;29;20026;-78
2023/08/25 00:15:17;;;;;;;7.88;3.22;;;19.70;99.90;;;;;;4953797;28;20030;-80
2023/08/25 00:17:42;;;;;;;3.30;2.80;;;19.60;99.90;;;;;;4953078;28;20425;-78
2023/08/25 00:20:12;;;;;;;5.25;3.00;;;19.60;99.90;;;;;;4952348;29;20042;-79
2023/08/25 00:22:38;;;;;;;4.82;3.38;;;19.50;99.90;;;;;;4952205;29;20516;-80
2023/08/25 00:25:04;;;;;;;6.85;3.13;;;19.50;99.90;;;;;;4968389;28;20034;-79
2023/08/25 00:27:30;;;;;;;5.88;3.42;;;19.50;99.90;;;;;;4968473;28;20031;-80
2023/08/25 00:29:55;;;;;;;6.38;3.95;;;19.60;99.90;;;;;;4953396;28;20032;-79
2023/08/25 00:32:21;;;;;;;7.10;3.40;;;19.60;99.90;;;;;;4951506;29;20477;-79
2023/08/25 00:34:47;;;;;;;4.28;2.95;;;19.60;99.90;;;;;;4953502;28;20639;-78
2023/08/25 00:37:12;;;;;;;3.42;3.13;;;19.60;99.90;;;;;;4953436;28;20020;-79
2023/08/25 00:39:38;;;;;;;6.80;3.30;;;19.60;99.90;;;;;;4953678;28;20477;-79
2023/08/25 00:42:04;;;;;;;10.93;4.28;;;19.50;99.90;;;;;;4953286;28;20031;-79
2023/08/25 00:44:30;;;;;;;5.25;3.97;;;19.60;99.90;;;;;;4968180;28;20023;-79
2023/08/25 00:46:56;;;;;;;5.55;2.83;;;19.60;99.90;;;;;;4952030;29;20094;-80
2023/08/25 00:49:23;;;;;;;5.15;2.95;;;19.60;99.90;;;;;;4953405;28;20023;-83
2023/08/25 00:51:50;;;;;;;4.97;3.13;;;19.60;99.90;;;;;;4953213;28;20027;-80
2023/08/25 00:54:16;;;;;;;7.40;3.22;;;19.70;99.90;;;;;;4953536;28;20027;-82
2023/08/25 00:56:42;;;;;;;6.85;2.67;;;19.60;99.90;;;;;;4967621;28;20174;-79
2023/08/25 00:59:08;;;;;;;7.65;2.95;;;19.60;99.90;;;;;;4953295;28;20097;-81
2023/08/25 01:01:35;;;;;;;4.78;2.75;;;19.60;99.90;;;;;;4951963;29;20134;-79
2023/08/25 01:04:01;;;;;;;5.88;2.80;;;19.70;99.90;;;;;;4967319;28;20031;-80
2023/08/25 01:06:26;;;;;;;3.40;2.97;;;19.70;99.90;;;;;;4968002;28;20624;-83
2023/08/25 01:08:53;;;;;;;2.38;2.17;;;19.70;99.90;;;;;;4951712;29;20023;-83
2023/08/25 01:11:44;;;;;;;6.60;2.63;;;19.70;99.90;;;;;;4952875;29;20125;-83
2023/08/25 01:14:20;;;;;;;3.67;2.67;;;19.50;99.90;;;;;;4967724;28;20115;-83
2023/08/25 01:17:11;;;;;;;5.70;2.20;;;19.60;99.90;;;;;;4967756;28;20023;-83
2023/08/25 01:20:00;;;;;;;8.75;3.60;;;19.60;99.90;;;;;;4951244;29;20415;-80
2023/08/25 01:22:53;;;;;;;3.72;2.88;;;19.60;99.90;;;;;;4967721;28;20527;-79
2023/08/25 01:25:31;;;;;;;9.95;3.38;;;19.50;99.90;;;;;;4953830;29;20138;-79
2023/08/25 01:28:03;;;;;;;6.93;2.78;;;19.50;99.90;;;;;;4969070;28;20476;-78
2023/08/25 01:30:30;;;;;;;3.40;2.40;;;19.50;99.90;;;;;;4966964;28;20042;-78
2023/08/25 01:32:56;;;;;;;5.30;2.58;;;19.60;99.90;;;;;;4966476;28;20475;-78
2023/08/25 01:35:56;;;;;;;8.65;3.70;;;19.50;99.90;;;;;;4966577;28;20062;-78
2023/08/25 01:38:32;;;;;;;9.18;4.95;;;19.50;99.90;;;;;;4945909;29;20031;-77
2023/08/25 01:41:19;;;;;;;9.57;2.85;;;19.40;99.90;;;;;;4966701;28;20282;-78
2023/08/25 01:43:49;;;;;;;11.27;4.05;;;19.50;99.90;;;;;;4952375;28;20022;-78
2023/08/25 01:46:17;;;;;;;8.80;3.40;;;19.60;99.90;;;;;;4951980;28;20046;-78
2023/08/25 01:48:45;;;;;;;10.77;3.83;;;19.50;99.90;;;;;;4951531;28;20457;-77
2023/08/25 01:51:11;;;;;;;11.13;3.77;;;19.40;99.90;;;;;;4952128;28;20051;-79
2023/08/25 01:53:37;;;;;;;3.65;2.35;;;19.40;99.90;;;;;;4951643;28;20283;-78
2023/08/25 01:56:03;;;;;;;5.25;2.83;;;19.40;99.90;;;;;;4966383;28;20035;-79
2023/08/25 01:58:29;;;;;;;3.40;2.58;;;19.40;99.90;;;;;;4952066;28;20481;-80
2023/08/25 02:00:54;;;;;;;8.07;3.33;;;19.50;99.90;;;;;;4960370;28;20105;-79
2023/08/25 02:03:20;;;;;;;3.38;2.70;;;19.40;99.90;;;;;;4970880;28;20391;-80
2023/08/25 02:05:45;;;;;;;6.43;3.60;;;19.40;99.90;;;;;;4953536;28;20034;-79
2023/08/25 02:08:11;;;;;;;4.13;2.88;;;19.50;99.90;;;;;;4970866;28;20023;-79
2023/08/25 02:10:37;;;;;;;6.88;4.82;;;19.50;99.90;;;;;;4970843;28;20310;-79
2023/08/25 02:13:02;;;;;;;5.25;3.17;;;19.50;99.90;;;;;;4969332;28;20074;-79
2023/08/25 02:15:28;;;;;;;6.95;3.40;;;19.40;99.90;;;;;;4970274;28;20122;-79
2023/08/25 02:17:54;;;;;;;8.20;3.13;;;19.40;99.90;;;;;;4970356;28;20034;-79
2023/08/25 02:20:19;;;;;;;4.40;3.13;;;19.40;99.90;;;;;;4969487;28;20050;-81
2023/08/25 02:22:45;;;;;;;5.50;3.08;;;19.40;99.90;;;;;;4970667;28;20033;-79
2023/08/25 02:25:11;;;;;;;2.65;2.30;;;19.40;99.90;;;;;;4971008;28;20026;-78
2023/08/25 02:27:36;;;;;;;3.55;1.90;;;19.40;99.90;;;;;;4953386;28;20126;-79
2023/08/25 02:30:03;;;;;;;6.43;3.47;;;19.40;99.90;;;;;;4970856;28;20435;-79
2023/08/25 02:32:28;;;;;;;5.63;2.70;;;19.30;99.90;;;;;;4969165;28;20027;-80
2023/08/25 02:34:54;;;;;;;4.90;3.25;;;19.30;99.90;;;;;;4953460;28;20083;-80
2023/08/25 02:37:20;;;;;;;6.80;3.28;;;19.20;99.90;;;;;;4953335;28;20494;-80
2023/08/25 02:39:46;;;;;;;8.27;3.25;;;19.10;99.90;;;;;;4953366;28;20510;-81
2023/08/25 02:42:12;;;;;;;3.10;2.70;;;19.10;99.90;;;;;;4969461;28;20038;-79
2023/08/25 02:44:38;;;;;;;7.38;2.83;;;19.10;99.90;;;;;;4969581;28;20023;-79
2023/08/25 02:47:03;;;;;;;5.28;2.28;;;19.10;99.90;;;;;;4970429;28;20126;-79
2023/08/25 02:49:29;;;;;;;3.13;2.88;;;19.10;99.90;;;;;;4953332;28;20031;-79
2023/08/25 02:51:56;;;;;;;9.15;3.38;;;19.00;99.90;;;;;;4968959;28;20037;-81
2023/08/25 02:54:23;;;;;;;3.20;2.60;;;19.00;99.90;;;;;;4969329;28;20039;-80
2023/08/25 02:56:49;;;;;;;4.25;2.75;;;19.00;99.90;;;;;;4969647;28;20045;-80
2023/08/25 02:59:14;;;;;;;3.55;2.67;;;19.10;99.90;;;;;;4970621;28;20480;-78
2023/08/25 03:01:40;;;;;;;5.25;2.60;;;19.10;99.90;;;;;;4970531;28;20062;-80
2023/08/25 03:04:06;;;;;;;5.20;2.75;;;19.00;99.90;;;;;;4969288;28;20034;-79
2023/08/25 03:06:32;;;;;;;5.82;2.63;;;19.00;99.90;;;;;;4970820;28;20019;-78
2023/08/25 03:08:57;;;;;;;9.20;2.90;;;19.00;99.90;;;;;;4970702;28;20431;-79
2023/08/25 03:11:23;;;;;;;4.25;2.65;;;19.00;99.90;;;;;;4968928;28;20023;-80
2023/08/25 03:13:48;;;;;;;44.03;22.70;;;19.00;99.90;;;;;;4968507;28;20030;-79
2023/08/25 03:16:14;;;;;;;10.80;3.97;;;19.00;99.90;;;;;;4968811;28;20113;-79
2023/08/25 03:18:40;;;;;;;6.78;2.83;;;19.10;99.90;;;;;;4970154;28;20487;-81
2023/08/25 03:21:05;;;;;;;8.20;2.80;;;19.10;99.90;;;;;;4970799;28;20046;-82
2023/08/25 03:23:31;;;;;;;10.80;3.58;;;19.10;99.90;;;;;;4970734;28;20074;-80
2023/08/25 03:25:57;;;;;;;5.20;2.50;;;19.00;99.90;;;;;;4970924;28;20035;-80
2023/08/25 03:28:23;;;;;;;6.10;2.15;;;19.00;99.90;;;;;;4970955;28;20031;-81
2023/08/25 03:30:53;;;;;;;2.72;2.47;;;18.90;99.90;;;;;;4972646;28;20482;-79
2023/08/25 03:33:19;;;;;;;6.47;2.78;;;18.80;99.90;;;;;;4974142;28;20046;-79
2023/08/25 03:35:44;;;;;;;2.42;2.20;;;18.80;99.90;;;;;;4973978;28;20062;-81
2023/08/25 03:38:10;;;;;;;3.28;1.98;;;18.70;99.90;;;;;;4972868;28;20022;-81
2023/08/25 03:40:36;;;;;;;5.70;2.45;;;18.80;99.90;;;;;;4974163;28;20114;-81
2023/08/25 03:43:01;;;;;;;4.68;3.22;;;18.80;99.90;;;;;;4972292;28;20027;-82
2023/08/25 03:45:27;;;;;;;6.57;3.35;;;18.70;99.90;;;;;;4972315;28;20231;-81
2023/08/25 03:47:52;;;;;;;2.63;2.35;;;18.70;99.90;;;;;;4973571;28;20031;-82
2023/08/25 03:50:18;;;;;;;6.95;2.88;;;18.70;99.90;;;;;;4973849;28;20031;-79
2023/08/25 03:52:44;;;;;;;5.57;2.72;;;18.60;99.90;;;;;;4972350;28;20053;-81
2023/08/25 03:55:10;;;;;;;6.20;3.65;;;18.60;99.90;;;;;;4973919;28;20031;-82
2023/08/25 03:57:35;;;;;;;2.70;2.20;;;18.50;99.90;;;;;;4973752;28;20022;-82
2023/08/25 04:00:05;;;;;;;7.68;2.10;;;18.50;99.90;;;;;;4956203;28;20035;-81
2023/08/25 04:02:30;;;;;;;6.95;3.22;;;18.50;99.90;;;;;;4955948;28;20100;-81
2023/08/25 04:04:56;;;;;;;6.47;3.10;;;18.50;99.90;;;;;;4955998;28;20243;-81
2023/08/25 04:07:22;;;;;;;2.63;2.38;;;18.60;99.90;;;;;;4973345;28;20106;-79
2023/08/25 04:09:47;;;;;;;3.25;2.60;;;18.60;99.90;;;;;;4973297;28;20097;-80
2023/08/25 04:12:13;;;;;;;3.83;2.72;;;18.50;99.90;;;;;;4973418;28;20089;-80
2023/08/25 04:14:39;;;;;;;5.32;2.90;;;18.40;99.90;;;;;;4973330;28;20038;-80
2023/08/25 04:17:04;;;;;;;3.13;2.45;;;18.40;99.90;;;;;;4973235;28;20018;-80
2023/08/25 04:19:30;;;;;;;3.28;2.55;;;18.50;99.90;;;;;;4956098;28;20094;-80
2023/08/25 04:21:56;;;;;;;4.40;2.83;;;18.50;99.90;;;;;;4955774;28;20026;-80
2023/08/25 04:24:22;;;;;;;3.85;2.88;;;18.50;99.90;;;;;;4973013;28;20352;-79
2023/08/25 04:26:47;;;;;;;7.68;2.67;;;18.50;99.90;;;;;;4972710;28;20228;-80
2023/08/25 04:29:13;;;;;;;2.60;2.40;;;18.50;99.90;;;;;;4955492;28;20025;-78
2023/08/25 04:31:39;;;;;;;4.10;2.60;;;18.60;99.90;;;;;;4972769;28;20030;-79
2023/08/25 04:34:07;;;;;;;3.45;2.20;;;18.60;99.90;;;;;;4972425;28;20061;-78
2023/08/25 04:36:34;;;;;;;4.70;3.08;;;18.60;99.90;;;;;;4955451;28;20502;-79
2023/08/25 04:38:59;;;;;;;3.97;3.10;;;18.50;99.90;;;;;;4972081;28;20034;-78
2023/08/25 04:41:25;;;;;;;3.42;2.13;;;18.50;99.90;;;;;;4972475;28;20039;-80
2023/08/25 04:43:51;;;;;;;3.20;2.65;;;18.50;99.90;;;;;;4955499;28;20421;-79
2023/08/25 04:46:16;;;;;;;7.38;2.97;;;18.60;99.90;;;;;;4972785;28;20041;-81
2023/08/25 04:48:45;;;;;;;6.32;3.13;;;18.60;99.90;;;;;;4972626;28;20057;-76
2023/08/25 04:51:12;;;;;;;3.40;2.53;;;18.70;99.90;;;;;;4972974;28;20437;-82
2023/08/25 04:53:38;;;;;;;4.28;1.95;;;18.70;99.90;;;;;;4972741;28;20030;-80
2023/08/25 04:56:04;;;;;;;3.30;2.30;;;18.80;99.90;;;;;;4973282;28;20042;-81
2023/08/25 04:58:30;;;;;;;6.80;2.58;;;18.80;99.90;;;;;;4972920;28;20077;-77
2023/08/25 05:00:56;;;;;;;10.23;3.00;;;18.80;99.90;;;;;;4971486;28;20503;-76
2023/08/25 05:03:21;;;;;;;2.75;2.20;;;18.90;99.90;;;;;;4971568;28;20113;-74
2023/08/25 05:05:47;;;;;;;5.15;3.25;;;18.90;99.90;;;;;;4970459;28;20035;-75
2023/08/25 05:08:13;;;;;;;2.70;2.00;;;19.00;99.90;;;;;;4971982;28;20035;-74
2023/08/25 05:10:38;;;;;;;3.22;2.30;;;18.90;99.90;;;;;;4971911;28;20130;-74
2023/08/25 05:13:04;;;;;;;7.88;3.13;;;19.00;99.90;;;;;;4983011;28;20444;-75
2023/08/25 05:15:30;;;;;;;4.32;2.55;;;19.00;99.90;;;;;;4991302;28;20026;-75
2023/08/25 05:17:55;;;;;;;2.22;1.80;;;19.10;99.90;;;;;;4973124;28;20241;-75
2023/08/25 05:20:21;;;;;;;2.83;2.63;;;19.20;99.90;;;;;;4991004;28;20037;-74
2023/08/25 05:22:48;;;;;;;6.85;2.50;;;19.30;99.90;;;;;;4991328;28;20045;-75
2023/08/25 05:25:14;;;;;;;4.20;2.83;;;19.30;99.90;;;;;;4991191;28;20534;-76
2023/08/25 05:27:40;;;;;;;6.57;2.20;;;19.40;99.90;;;;;;4990924;28;20034;-75
2023/08/25 05:30:06;;;;;;;5.82;3.03;;;19.30;99.90;;;;;;4990812;28;20019;-75
2023/08/25 05:32:32;;;;;;;7.50;2.78;;;19.40;99.90;;;;;;4990399;28;20075;-75
2023/08/25 05:34:58;;;;;;;7.93;2.67;;;19.50;99.90;;;;;;4990787;28;20030;-76
2023/08/25 05:37:23;;;;;;;2.47;2.00;;;19.60;99.90;;;;;;4990762;28;20027;-75
2023/08/25 05:39:49;;;;;;;2.35;2.10;;;19.70;99.90;;;;;;4990447;28;20034;-75
2023/08/25 05:42:15;;;;;;;4.32;2.58;;;19.80;99.90;;;;;;4990660;28;20485;-75
2023/08/25 05:44:41;;;;;;;5.07;2.72;;;19.90;99.90;;;;;;4990627;28;20061;-75
2023/08/25 05:47:07;;;;;;;3.65;2.58;;;19.90;99.90;;;;;;4990328;28;20061;-75
2023/08/25 05:49:32;;;;;;;15.82;3.08;;;20.10;99.90;;;;;;4990606;28;20680;-75
2023/08/25 05:51:58;;;;;;;8.45;2.45;;;20.20;99.90;;;;;;4989687;28;20026;-75
2023/08/25 05:54:24;;;;;;;7.93;2.13;;;20.20;99.90;;;;;;4972691;28;20034;-76
2023/08/25 05:56:49;;;;;;;3.13;2.30;;;20.20;99.90;;;;;;4972821;28;20122;-75
2023/08/25 05:59:15;;;;;;;7.72;3.15;;;20.00;99.90;;;;;;4990256;28;20588;-75
2023/08/25 06:01:41;;;;;;;3.90;2.38;;;20.00;99.90;;;;;;4989781;28;20078;-75
2023/08/25 06:04:07;;;;;;;5.90;2.78;;;19.90;99.90;;;;;;4990377;28;20026;-75
2023/08/25 06:06:33;;;;;;;4.72;2.95;;;19.80;99.90;;;;;;4990317;28;20416;-74
2023/08/25 06:08:58;;;;;;;5.97;3.35;;;19.90;99.90;;;;;;4990515;28;20353;-74
2023/08/25 06:11:24;;;;;;;6.72;2.53;;;19.80;99.90;;;;;;4990348;28;20163;-79
2023/08/25 06:13:50;;;;;;;5.93;2.78;;;19.80;99.90;;;;;;4972595;28;20328;-86
2023/08/25 06:16:16;;;;;;;4.32;2.53;;;19.80;99.90;;;;;;4973079;28;20038;-80
2023/08/25 06:18:42;;;;;;;3.65;2.63;;;19.70;99.90;;;;;;4972474;28;20066;-79
2023/08/25 06:21:09;;;;;;;4.78;2.63;;;19.70;99.90;;;;;;4973909;28;20509;-79
2023/08/25 06:23:34;;;;;;;3.60;2.80;;;19.70;99.90;;;;;;4972660;28;20270;-78
2023/08/25 06:26:00;;;;;;;5.85;3.10;;;19.70;99.90;;;;;;4972145;28;20259;-79
2023/08/25 06:28:26;;;;;;;9.27;4.13;;;19.70;99.90;;;;;;4973710;28;20430;-79
2023/08/25 06:30:51;;;;;;;3.60;2.70;;;19.80;99.90;;;;;;4974009;28;20052;-77
2023/08/25 06:33:17;;;;;;;5.03;3.58;;;19.90;99.90;;;;;;4973419;28;20054;-78
2023/08/25 06:35:43;;;;;;;3.38;2.60;;;19.90;99.90;;;;;;4973566;28;20399;-78
2023/08/25 06:38:08;;;;;;;3.80;2.88;;;19.90;99.90;;;;;;4991047;28;20097;-78
2023/08/25 06:40:34;;;;;;;7.35;2.42;;;19.90;99.90;;;;;;4990943;28;20057;-79
2023/08/25 06:43:01;;;;;;;3.28;2.97;;;20.00;99.90;;;;;;4990774;28;20124;-79
2023/08/25 06:45:28;;;;;;;9.60;3.28;;;19.90;99.90;;;;;;4988396;28;20471;-78
2023/08/25 06:47:57;;;;;;;11.80;3.20;;;19.90;99.90;;;;;;4970578;28;20018;-78
2023/08/25 06:50:23;;;;;;;3.35;3.05;;;19.90;99.90;;;;;;4970349;28;20030;-79
2023/08/25 06:52:49;;;;;;;4.90;2.55;;;19.90;99.90;;;;;;4988608;28;20036;-79
2023/08/25 06:55:18;;;;;;;4.70;2.55;;;19.80;99.90;;;;;;4988370;28;20031;-78
2023/08/25 06:57:46;;;;;;;3.80;2.70;;;19.70;99.90;;;;;;4989044;28;20583;-79
2023/08/25 07:00:13;;;;;;;11.13;3.83;;;19.70;99.90;;;;;;4975190;28;20050;-78
2023/08/25 07:02:43;;;;;;;2.90;2.45;;;19.60;99.90;;;;;;4995215;28;20042;-80
2023/08/25 07:05:09;;;;;;;5.60;3.65;;;19.60;99.90;;;;;;4987139;28;20022;-82
2023/08/25 07:07:36;;;;;;;4.72;3.60;;;19.50;99.90;;;;;;5004101;28;20114;-80
2023/08/25 07:10:02;;;;;;;4.80;3.80;;;19.50;99.90;;;;;;4986664;28;20310;-82
2023/08/25 07:12:28;;;;;;;4.55;3.20;;;19.50;99.90;;;;;;5004000;28;20139;-80
2023/08/25 07:14:53;;;;;;;3.10;2.85;;;19.50;99.90;;;;;;5004333;28;20125;-80
2023/08/25 07:17:19;;;;;;;8.40;3.47;;;19.60;99.90;;;;;;4983960;28;20030;-80
2023/08/25 07:19:45;;;;;;;3.90;2.92;;;19.60;99.90;;;;;;4981974;28;20027;-79
2023/08/25 07:22:10;;;;;;;5.80;3.72;;;19.70;99.90;;;;;;4978731;28;20072;-79
2023/08/25 07:24:36;;;;;;;3.90;3.53;;;19.80;99.90;;;;;;5003457;28;20365;-79
2023/08/25 07:27:02;;;;;;;4.07;3.63;;;19.90;99.90;;;;;;4982369;28;20097;-80
2023/08/25 07:29:27;;;;;;;3.83;3.08;;;19.90;99.90;;;;;;5000669;28;20078;-82
2023/08/25 07:31:53;;;;;;;5.07;4.20;;;20.00;99.90;;;;;;4986741;28;20178;-79
2023/08/25 07:34:19;;;;;;;3.53;3.22;;;20.10;99.90;;;;;;4985957;28;20049;-79
2023/08/25 07:36:45;;;;;;;4.90;3.58;;;20.20;99.90;;;;;;4998321;28;20026;-77
2023/08/25 07:39:11;;;;;;;7.45;3.08;;;20.40;99.90;;;;;;5000439;28;20026;-77
2023/08/25 07:41:37;;;;;;;3.65;3.28;;;20.60;99.90;;;;;;4997986;28;20062;-77
2023/08/25 07:44:02;;;;;;;6.30;3.10;;;20.60;99.90;;;;;;5000126;28;20033;-77
2023/08/25 07:46:29;;;;;;;3.35;2.78;;;20.60;99.90;;;;;;4998571;28;20022;-77
2023/08/25 07:48:55;;;;;;;7.53;3.33;;;20.90;99.90;;;;;;4981449;28;20033;-77
2023/08/25 07:51:21;;;;;;;4.25;3.10;;;21.00;99.90;;;;;;5001206;28;20015;-76
2023/08/25 07:53:46;;;;;;;5.20;2.50;;;21.20;99.90;;;;;;4980513;28;20085;-77
2023/08/25 07:56:13;;;;;;;4.10;3.17;;;21.40;99.90;;;;;;4995903;28;20018;-76
2023/08/25 07:58:38;;;;;;;3.75;2.70;;;21.70;99.90;;;;;;5002953;28;20014;-76
2023/08/25 08:01:04;;;;;;;4.20;2.60;;;21.80;99.90;;;;;;4994583;28;20058;-76
2023/08/25 08:03:31;;;;;;;4.80;2.55;;;22.10;99.90;;;;;;5002264;28;20022;-76
2023/08/25 08:05:56;;;;;;;9.13;3.28;;;22.40;99.90;;;;;;5001128;28;20022;-77
2023/08/25 08:08:22;;;;;;;4.88;3.22;;;22.60;99.90;;;;;;4994598;28;20014;-76
2023/08/25 08:10:48;;;;;;;4.20;2.92;;;23.00;99.90;;;;;;4994594;28;20368;-78
2023/08/25 08:13:13;;;;;;;5.75;4.70;;;23.10;99.90;;;;;;4987320;28;20103;-76
2023/08/25 08:15:39;;;;;;;3.05;2.45;;;23.20;99.90;;;;;;4979163;28;20047;-76
2023/08/25 08:18:08;;;;;;;4.07;2.55;;;23.30;99.90;;;;;;4980994;28;20027;-75
2023/08/25 08:20:37;;;;;;;4.38;2.38;;;23.40;99.90;;;;;;4982588;28;20037;-76
2023/08/25 08:23:03;;;;;;;;;;;23.40;99.90;;;;;;4965848;28;20054;-75
2023/08/25 08:25:30;;;;;;;15.13;8.43;;;23.30;99.90;;;;;;4982906;28;19902;-76
2023/08/25 08:27:56;;;;;;;14.07;8.27;;;23.20;99.90;;;;;;4981560;28;20019;-76
2023/08/25 08:30:22;;;;;;;7.38;4.40;;;23.20;99.90;;;;;;4958888;28;20038;-76
2023/08/25 08:32:49;;;;;;;5.97;2.85;;;23.20;99.90;;;;;;4974788;28;20027;-76
2023/08/25 08:35:15;;;;;;;4.38;2.63;;;23.30;99.90;;;;;;4973921;28;20057;-76
2023/08/25 08:37:41;;;;;;;3.80;2.20;;;23.60;99.90;;;;;;4975124;28;20069;-76
2023/08/25 08:40:10;;;;;;;3.25;2.92;;;23.90;99.90;;;;;;4977410;28;20035;-76
2023/08/25 08:42:37;;;;;;;4.20;2.35;;;23.90;99.90;;;;;;4976488;28;20039;-76
2023/08/25 08:45:07;;;;;;;3.38;2.90;;;23.90;99.90;;;;;;4979330;28;20479;-76
2023/08/25 08:47:34;;;;;;;3.05;2.28;;;23.80;99.90;;;;;;4980500;28;20026;-76
2023/08/25 08:50:00;;;;;;;3.83;2.60;;;24.10;99.90;;;;;;4958411;28;20161;-76
2023/08/25 08:52:28;;;;;;;6.30;2.60;;;24.10;99.90;;;;;;4975390;28;20219;-76
2023/08/25 08:54:57;;;;;;;4.38;2.50;;;24.40;99.90;;;;;;4972515;28;20157;-73
2023/08/25 08:57:24;;;;;;;3.15;2.17;;;24.70;99.90;;;;;;4958126;28;20023;-74
2023/08/25 08:59:51;;;;;;;4.63;2.88;;;25.10;99.90;;;;;;4973554;28;20078;-74
2023/08/25 09:02:20;;;;;;;9.48;3.10;;;25.20;99.90;;;;;;4974278;28;20077;-73
2023/08/25 09:04:46;;;;;;;;;;;25.20;99.90;;;;;;4954326;28;20085;-76
2023/08/25 09:07:12;;;;;;;6.75;2.40;;;25.40;99.90;;;;;;4973749;28;19905;-74
2023/08/25 09:09:40;;;;;;;2.92;2.40;;;25.70;99.90;;;;;;4987349;28;20019;-74
2023/08/25 09:12:06;;;;;;;2.35;2.15;;;25.80;99.90;;;;;;4988900;28;20026;-74
2023/08/25 09:14:31;;;;;;;5.70;2.20;;;26.00;99.90;;;;;;4988673;28;20026;-74
2023/08/25 09:17:00;;;;;;;3.45;2.03;;;26.20;99.90;;;;;;4986616;28;20056;-75
2023/08/25 09:19:32;;;;;;;3.10;2.67;;;26.30;99.90;;;;;;4972274;28;20050;-76
2023/08/25 09:22:02;;;;;;;2.58;2.33;;;26.20;99.90;;;;;;4989458;28;20034;-74
2023/08/25 09:24:30;;;;;;;3.17;2.30;;;26.00;99.90;;;;;;4990337;28;20030;-75
2023/08/25 09:26:55;;;;;;;3.47;2.30;;;25.80;99.90;;;;;;4972849;28;20033;-75
2023/08/25 09:29:24;;;;;;;5.50;2.20;;;25.40;99.90;;;;;;4990353;28;20031;-74
2023/08/25 09:31:49;;;;;;;4.70;2.63;;;25.10;99.90;;;;;;4988333;28;20383;-74
2023/08/25 09:34:15;;;;;;;6.28;2.80;;;24.90;99.90;;;;;;4990681;28;20026;-74
2023/08/25 09:36:55;;;;;;;5.45;2.78;;;25.10;99.90;;;;;;4988525;28;20171;-76
2023/08/25 09:39:22;;;;;;;3.47;2.70;;;25.20;99.90;;;;;;4990177;28;20643;-78
2023/08/25 09:41:49;;;;;;;2.53;2.33;;;25.40;99.90;;;;;;4974707;28;20322;-74
2023/08/25 09:44:16;;;;;;;2.63;2.17;;;25.40;99.90;;;;;;5001221;28;20014;-73
2023/08/25 09:46:42;;;;;;;2.65;1.80;;;25.60;99.90;;;;;;5000245;28;20018;-75
2023/08/25 09:49:10;;;;;;;2.83;2.33;;;26.00;99.90;;;;;;5000617;28;20030;-75
2023/08/25 09:51:47;;;;;;;3.70;2.33;;;26.50;99.90;;;;;;4973983;28;20081;-75
2023/08/25 09:54:16;;;;;;;3.88;1.90;;;26.80;99.90;;;;;;5000367;28;20053;-75
2023/08/25 09:56:44;;;;;;;7.55;4.57;;;26.80;99.90;;;;;;4982126;28;20018;-75
2023/08/25 09:59:11;;;;;;;4.68;2.53;;;26.70;99.90;;;;;;5000554;28;20202;-73
2023/08/25 10:01:39;;;;;;;4.40;2.08;;;26.80;99.90;;;;;;4998128;28;20073;-76
2023/08/25 10:04:05;;;;;;;1.88;1.65;;;26.60;99.90;;;;;;4996934;28;20298;-75
2023/08/25 10:06:32;;;;;;;1.77;1.67;;;26.70;99.90;;;;;;4983266;28;20038;-75
2023/08/25 10:08:59;;;;;;;3.58;1.88;;;26.80;99.90;;;;;;5000883;28;20370;-76
2023/08/25 10:11:29;;;;;;;2.58;1.70;;;26.80;99.90;;;;;;5000739;28;20049;-76
2023/08/25 10:13:56;;;;;;;2.75;1.70;;;26.90;99.90;;;;;;4983434;28;20120;-76
2023/08/25 10:16:25;;;;;;;4.00;2.10;;;27.00;99.90;;;;;;5000136;28;20022;-75
2023/08/25 10:18:58;;;;;;;2.92;1.67;;;27.00;99.90;;;;;;4999955;28;20230;-75
2023/08/25 10:21:25;;;;;;;4.25;1.60;;;27.00;99.90;;;;;;4993326;28;20034;-75
2023/08/25 10:23:54;;;;;;;3.55;1.25;;;27.10;99.90;;;;;;4989681;28;20026;-75
2023/08/25 10:26:22;;;;;;;1.60;1.50;;;27.20;99.90;;;;;;4972944;28;20034;-76
2023/08/25 10:28:48;;;;;;;1.83;1.73;;;27.00;99.90;;;;;;4989533;28;20037;-76
2023/08/25 10:31:14;;;;;;;2.22;1.88;;;26.80;99.90;;;;;;4989960;28;20018;-75
2023/08/25 10:33:51;;;;;;;2.30;1.83;;;26.70;99.90;;;;;;4991154;28;20031;-77
2023/08/25 10:36:21;;;;;;;2.72;2.08;;;26.50;99.90;;;;;;4989503;28;20018;-76
2023/08/25 10:39:07;;;;;;;2.13;1.95;;;26.50;99.90;;;;;;4988971;28;20030;-77
2023/08/25 10:41:44;;;;;;;2.25;2.03;;;26.50;99.90;;;;;;4989682;28;20467;-78
2023/08/25 10:44:20;;;;;;;7.13;2.22;;;27.00;99.90;;;;;;4989484;28;20030;-76
2023/08/25 10:46:48;;;;;;;3.85;1.98;;;27.30;99.90;;;;;;4973275;28;20030;-72
2023/08/25 10:49:14;;;;;;;4.10;2.00;;;27.40;99.90;;;;;;4991347;28;20022;-71
2023/08/25 10:51:39;;;;;;;3.95;2.60;;;27.40;99.90;;;;;;4995797;28;20068;-72
2023/08/25 10:54:16;;;;;;;2.65;1.70;;;27.40;99.90;;;;;;4998942;28;20010;-72
2023/08/25 10:56:42;;;;;;;4.50;1.83;;;27.40;99.90;;;;;;4998608;28;20122;-75
2023/08/25 10:59:10;;;;;;;3.53;2.10;;;27.40;99.90;;;;;;4995086;28;20210;-75
2023/08/25 11:01:38;;;;;;;4.38;1.70;;;27.40;99.90;;;;;;4996664;28;20046;-72
2023/08/25 11:04:08;;;;;;;5.90;2.00;;;27.40;99.90;;;;;;4993605;28;20127;-72
2023/08/25 11:06:43;;;;;;;2.63;2.08;;;27.40;99.90;;;;;;4993603;28;20034;-72
2023/08/25 11:09:20;;;;;;;1.75;1.60;;;27.30;99.90;;;;;;4992684;28;20113;-71
2023/08/25 11:11:54;;;;;;;2.75;2.00;;;27.20;99.50;;;;;;4981518;28;20112;-79
2023/08/25 11:14:20;;;;;;;2.20;1.55;;;27.30;99.70;;;;;;4997150;28;20041;-81
2023/08/25 11:16:47;;;;;;;1.75;1.50;;;27.30;99.70;;;;;;4990426;28;20105;-80
2023/08/25 11:19:16;;;;;;;1.60;1.48;;;27.10;99.90;;;;;;4989676;28;20037;-80
2023/08/25 11:21:41;;;;;;;1.90;1.80;;;26.90;99.00;;;;;;4991311;28;20035;-80
2023/08/25 11:24:07;;;;;;;2.80;1.80;;;26.90;99.30;;;;;;4988784;28;20031;-81
2023/08/25 11:26:34;;;;;;;2.20;1.73;;;26.90;99.90;;;;;;4990716;28;20542;-80
2023/08/25 11:29:00;;;;;;;1.75;1.20;;;26.80;99.10;;;;;;4991043;28;20030;-80
2023/08/25 11:31:26;;;;;;;2.63;2.03;;;26.70;99.10;;;;;;4991945;28;20622;-80
2023/08/25 11:33:55;;;;;;;1.58;1.50;;;26.80;98.20;;;;;;4988552;28;20026;-81
2023/08/25 11:36:27;;;;;;;1.20;1.10;;;26.80;97.40;;;;;;4986569;28;20031;-80
2023/08/25 11:38:52;;;;;;;1.48;1.38;;;26.80;96.20;;;;;;4987273;28;20027;-80
2023/08/25 11:41:19;;;;;;;1.40;1.30;;;26.70;95.80;;;;;;4987411;28;20383;-80
2023/08/25 11:43:48;;;;;;;1.63;1.52;;;26.60;96.90;;;;;;4971647;28;20766;-82
2023/08/25 11:46:15;;;;;;;1.48;1.38;;;26.80;94.70;;;;;;4987790;28;20030;-82
2023/08/25 11:48:40;;;;;;;3.08;1.20;;;27.00;95.90;;;;;;4988001;28;20216;-80
2023/08/25 11:51:13;;;;;;;1.50;1.40;;;27.00;94.80;;;;;;4991347;28;20041;-82
2023/08/25 11:53:40;;;;;;;3.35;1.42;;;27.10;93.50;;;;;;4992498;28;20468;-80
2023/08/25 11:56:06;;;;;;;1.10;1.10;;;27.20;93.80;;;;;;4992009;28;20026;-80
2023/08/25 11:58:34;;;;;;;1.23;1.20;;;27.30;93.50;;;;;;4991162;28;20088;-80
2023/08/25 12:01:07;;;;;;;4.18;2.65;;;27.20;92.30;;;;;;4992195;28;20050;-80
2023/08/25 12:03:34;;;;;;;4.65;1.70;;;27.30;93.00;;;;;;4974483;28;20431;-79
2023/08/25 12:06:06;;;;;;;1.48;1.38;;;27.40;93.10;;;;;;4993115;28;20100;-80
2023/08/25 12:08:36;;;;;;;1.40;1.30;;;27.40;92.00;;;;;;4975796;28;20023;-80
2023/08/25 12:11:04;;;;;;;4.63;1.60;;;27.40;92.50;;;;;;4975968;28;20041;-79
2023/08/25 12:13:37;;;;;;;1.30;1.30;;;27.60;92.00;;;;;;4976061;28;20028;-79
2023/08/25 12:16:04;;;;;;;6.75;1.58;;;27.80;92.10;;;;;;4976067;28;20198;-80
2023/08/25 12:18:37;;;;;;;1.88;1.58;;;27.70;91.70;;;;;;4975312;28;20023;-80
2023/08/25 12:21:05;;;;;;;4.80;1.08;;;27.80;87.80;;;;;;4975747;28;20045;-79
2023/08/25 12:23:38;;;;;;;2.15;1.42;;;27.90;89.20;;;;;;4975630;28;20497;-83
2023/08/25 12:26:05;;;;;;;4.38;1.85;;;27.80;91.10;;;;;;4975504;28;20173;-80
2023/08/25 12:28:32;;;;;;;1.77;1.38;;;27.70;92.50;;;;;;4975513;28;20028;-80
2023/08/25 12:31:00;;;;;;;1.40;1.20;;;27.70;88.70;;;;;;4975540;28;20057;-79
2023/08/25 12:33:25;;;;;;;1.25;1.25;;;27.70;90.00;;;;;;4974902;28;20113;-79
2023/08/25 12:35:51;;;;;;;1.35;1.20;;;27.70;91.00;;;;;;4975378;28;20129;-79
2023/08/25 12:38:17;;;;;;;1.48;1.38;;;27.60;91.40;;;;;;4975299;28;20066;-80
2023/08/25 12:40:42;;;;;;;0.98;0.98;;;27.60;90.80;;;;;;4975329;28;20471;-79
2023/08/25 12:43:08;;;;;;;3.88;1.45;;;27.40;92.30;;;;;;4974807;28;20472;-80
2023/08/25 12:45:33;;;;;;;1.10;1.00;;;27.20;90.40;;;;;;4975178;28;20356;-79
2023/08/25 12:47:59;;;;;;;3.65;1.05;;;26.90;86.20;;;;;;4974470;28;20034;-79